Time;durP1;ratioP1;P1;durP2;ratioP2;P2;SDS_P1;SDS_P2;PMS_P1;PMS_P2;Temp;Humidity;BMP_temperature;BMP_pressure;BME280_temperature;BME280_humidity;BME280_pressure;Samples;Min_cycle;Max_cycle;Signal;HPM_P1;HPM_P2
2021/07/22 00:00:09;;;;;;;9.50;8.53;;;16.20;99.90;;;;;;6266458;22;20445;-87
2021/07/22 00:02:45;;;;;;;8.83;7.90;;;16.20;99.90;;;;;;6267456;22;20412;-87
2021/07/22 00:05:11;;;;;;;11.97;8.50;;;16.10;99.90;;;;;;6269108;22;20399;-87
2021/07/22 00:07:47;;;;;;;9.73;8.73;;;16.20;99.90;;;;;;6269660;22;20384;-87
2021/07/22 00:10:15;;;;;;;11.33;9.30;;;16.20;99.90;;;;;;6270308;22;20885;-87
2021/07/22 00:12:42;;;;;;;10.07;9.00;;;16.10;99.90;;;;;;6293935;22;20376;-86
2021/07/22 00:15:21;;;;;;;9.70;8.80;;;16.00;99.90;;;;;;6268780;22;20396;-86
2021/07/22 00:17:47;;;;;;;13.00;8.40;;;16.10;99.90;;;;;;6269098;22;20489;-86
2021/07/22 00:20:13;;;;;;;11.57;8.23;;;16.00;99.90;;;;;;6269450;22;20387;-86
2021/07/22 00:22:39;;;;;;;10.27;9.03;;;;;;;;;;6268279;22;20244;-86
2021/07/22 00:25:07;;;;;;;8.90;8.00;;;15.80;99.90;;;;;;6269721;22;20410;-86
2021/07/22 00:27:34;;;;;;;8.70;7.80;;;15.50;99.90;;;;;;6264197;22;20408;-87
2021/07/22 00:30:07;;;;;;;9.50;7.77;;;;;;;;;;6267609;22;20396;-87
2021/07/22 00:32:35;;;;;;;10.80;8.60;;;;;;;;;;6293739;22;20395;-86
2021/07/22 00:35:02;;;;;;;9.37;8.07;;;;;;;;;;6267427;22;20391;-86
2021/07/22 00:37:28;;;;;;;10.30;7.30;;;;;;;;;;6268164;22;20396;-86
2021/07/22 00:39:54;;;;;;;10.63;7.70;;;16.00;99.90;;;;;;6267718;22;20407;-86
2021/07/22 00:42:27;;;;;;;8.53;7.73;;;16.40;99.90;;;;;;6267376;22;20388;-86
2021/07/22 00:44:56;;;;;;;10.50;9.40;;;16.30;99.90;;;;;;6268080;22;20396;-86
2021/07/22 00:47:25;;;;;;;10.20;8.67;;;16.20;99.90;;;;;;6268452;22;20410;-86
2021/07/22 00:50:02;;;;;;;10.63;9.40;;;16.30;99.90;;;;;;6295931;22;20395;-87
2021/07/22 00:52:32;;;;;;;9.13;8.03;;;16.60;99.90;;;;;;6268387;22;20411;-86
2021/07/22 00:55:03;;;;;;;8.63;7.47;;;16.10;99.90;;;;;;6268516;22;20450;-87
2021/07/22 00:57:33;;;;;;;8.73;7.80;;;16.10;99.90;;;;;;6262329;22;20495;-87
2021/07/22 01:00:00;;;;;;;9.40;8.03;;;17.20;99.90;;;;;;6268605;22;20936;-87
2021/07/22 01:02:43;;;;;;;13.50;8.33;;;15.90;99.90;;;;;;6268140;22;20438;-87
2021/07/22 01:05:10;;;;;;;9.00;8.10;;;16.30;99.90;;;;;;6267687;22;20566;-87
2021/07/22 01:07:42;;;;;;;10.63;9.53;;;15.50;99.90;;;;;;6268719;22;21134;-87
2021/07/22 01:10:11;;;;;;;10.20;8.97;;;15.60;99.90;;;;;;6270088;22;20427;-87
2021/07/22 01:12:40;;;;;;;12.90;9.10;;;15.30;99.90;;;;;;6266617;22;20467;-87
2021/07/22 01:15:07;;;;;;;9.80;8.80;;;15.30;99.90;;;;;;6268946;22;20451;-88
2021/07/22 01:17:49;;;;;;;9.67;8.67;;;15.50;99.90;;;;;;6266867;22;20467;-88
2021/07/22 01:20:22;;;;;;;13.00;9.17;;;16.40;99.90;;;;;;6267096;22;20392;-88
2021/07/22 01:22:56;;;;;;;10.00;8.47;;;15.50;99.90;;;;;;6295318;22;20389;-88
2021/07/22 01:25:30;;;;;;;11.33;8.53;;;15.50;99.90;;;;;;6268129;22;20423;-88
2021/07/22 01:27:57;;;;;;;9.60;8.70;;;15.70;99.90;;;;;;6265828;22;20864;-88
2021/07/22 01:30:24;;;;;;;9.43;8.43;;;15.50;99.90;;;;;;6268092;22;20441;-88
2021/07/22 01:32:52;;;;;;;12.13;9.23;;;15.60;99.90;;;;;;6263786;22;20436;-87
2021/07/22 01:35:18;;;;;;;9.83;8.83;;;15.60;99.90;;;;;;6265817;22;20475;-87
2021/07/22 01:37:45;;;;;;;9.70;8.70;;;15.30;99.90;;;;;;6266622;22;20391;-87
2021/07/22 01:40:13;;;;;;;9.77;8.77;;;15.10;99.90;;;;;;6268230;22;20395;-87
2021/07/22 01:42:41;;;;;;;10.37;9.00;;;16.40;99.90;;;;;;6267166;22;20423;-87
2021/07/22 01:45:09;;;;;;;10.80;8.87;;;15.00;99.90;;;;;;6268227;22;20465;-87
2021/07/22 01:47:36;;;;;;;11.97;8.70;;;15.00;99.90;;;;;;6267215;22;20450;-87
2021/07/22 01:50:04;;;;;;;13.10;8.60;;;15.10;99.90;;;;;;6267365;22;20404;-87
2021/07/22 01:52:32;;;;;;;11.10;9.07;;;15.40;99.90;;;;;;6267313;22;20486;-87
2021/07/22 01:55:01;;;;;;;17.73;9.70;;;15.60;99.90;;;;;;6259380;22;20738;-87
2021/07/22 01:57:31;;;;;;;11.27;9.20;;;14.90;99.90;;;;;;6267517;22;20451;-88
2021/07/22 02:00:04;;;;;;;11.13;9.23;;;14.90;99.90;;;;;;6268376;22;20486;-86
2021/07/22 02:02:35;;;;;;;13.73;10.17;;;14.80;99.90;;;;;;6267782;22;20410;-87
2021/07/22 02:05:01;;;;;;;9.70;8.80;;;15.00;99.90;;;;;;6266356;22;20400;-86
2021/07/22 02:07:27;;;;;;;11.30;9.40;;;15.10;99.90;;;;;;6268083;22;21722;-86
2021/07/22 02:09:53;;;;;;;11.23;9.00;;;15.10;99.90;;;;;;6268290;22;20468;-87
2021/07/22 02:12:20;;;;;;;14.33;9.10;;;15.10;99.90;;;;;;6242243;22;20403;-86
2021/07/22 02:14:50;;;;;;;10.00;8.30;;;15.10;99.90;;;;;;6267931;22;20905;-87
2021/07/22 02:17:17;;;;;;;9.50;8.50;;;15.00;99.90;;;;;;6268064;22;20396;-86
2021/07/22 02:19:43;;;;;;;10.33;8.27;;;15.00;99.90;;;;;;6267093;22;20470;-86
2021/07/22 02:22:09;;;;;;;9.23;8.33;;;15.10;99.90;;;;;;6267808;22;20400;-87
2021/07/22 02:24:35;;;;;;;10.63;8.77;;;15.10;99.90;;;;;;6268263;22;20396;-86
2021/07/22 02:27:01;;;;;;;12.10;8.40;;;;;;;;;;6267815;22;20910;-87
2021/07/22 02:29:27;;;;;;;10.27;9.10;;;15.00;99.90;;;;;;6267892;22;20166;-86
2021/07/22 02:32:01;;;;;;;10.43;8.50;;;15.30;99.90;;;;;;6292611;22;20449;-86
2021/07/22 02:34:32;;;;;;;11.23;9.43;;;15.00;99.90;;;;;;6268182;22;20423;-88
2021/07/22 02:36:59;;;;;;;13.60;10.33;;;15.30;99.90;;;;;;6268582;22;20392;-88
2021/07/22 02:39:35;;;;;;;14.03;10.20;;;15.30;99.90;;;;;;6267752;22;20544;-87
2021/07/22 02:42:01;;;;;;;15.30;8.93;;;15.30;99.90;;;;;;6268002;22;20391;-87
2021/07/22 02:44:39;;;;;;;10.47;9.30;;;15.40;99.90;;;;;;6268285;22;20404;-87
2021/07/22 02:47:11;;;;;;;10.80;9.33;;;15.20;99.90;;;;;;6268236;22;20479;-87
2021/07/22 02:49:38;;;;;;;11.57;10.37;;;;;;;;;;6267104;22;20485;-87
2021/07/22 02:52:06;;;;;;;12.23;9.80;;;15.00;99.90;;;;;;6268535;22;20724;-88
2021/07/22 02:54:32;;;;;;;10.93;9.63;;;15.10;99.90;;;;;;6267315;22;20404;-87
2021/07/22 02:56:59;;;;;;;9.50;8.50;;;15.20;99.90;;;;;;6267172;22;20924;-86
2021/07/22 02:59:25;;;;;;;12.20;10.33;;;15.30;99.90;;;;;;6267867;22;20442;-87
2021/07/22 03:01:51;;;;;;;14.40;9.93;;;15.30;99.90;;;;;;6268259;22;20396;-87
2021/07/22 03:04:19;;;;;;;12.13;9.20;;;15.30;99.90;;;;;;6266889;22;20495;-87
2021/07/22 03:06:45;;;;;;;10.13;9.10;;;15.30;99.90;;;;;;6267215;22;20229;-86
2021/07/22 03:09:11;;;;;;;12.40;8.93;;;;;;;;;;6267614;22;20404;-87
2021/07/22 03:11:40;;;;;;;11.30;9.83;;;14.90;99.90;;;;;;6267297;22;20181;-87
2021/07/22 03:14:06;;;;;;;11.27;9.43;;;15.10;99.90;;;;;;6267823;22;20487;-87
2021/07/22 03:16:39;;;;;;;11.67;9.67;;;15.20;99.90;;;;;;6294812;22;20388;-87
2021/07/22 03:19:06;;;;;;;13.73;8.83;;;15.80;99.90;;;;;;6267223;22;20479;-87
2021/07/22 03:21:32;;;;;;;11.33;8.90;;;15.10;99.90;;;;;;6267072;22;20396;-87
2021/07/22 03:24:05;;;;;;;11.73;9.50;;;14.70;99.90;;;;;;6267894;22;20525;-87
2021/07/22 03:26:31;;;;;;;11.90;9.70;;;14.50;99.90;;;;;;6267841;22;20392;-87
2021/07/22 03:28:58;;;;;;;13.50;10.23;;;14.50;99.90;;;;;;6292957;22;20493;-87
2021/07/22 03:31:29;;;;;;;13.30;10.90;;;14.40;99.90;;;;;;6268392;22;20967;-87
2021/07/22 03:33:56;;;;;;;12.90;10.63;;;14.50;99.90;;;;;;6267819;22;20189;-87
2021/07/22 03:36:22;;;;;;;11.50;9.80;;;14.40;99.90;;;;;;6268961;22;20479;-87
2021/07/22 03:38:55;;;;;;;13.27;9.93;;;14.40;99.90;;;;;;6266711;22;20482;-87
2021/07/22 03:41:22;;;;;;;12.50;10.80;;;14.40;99.90;;;;;;6267864;22;20162;-86
2021/07/22 03:43:49;;;;;;;12.40;10.47;;;14.30;99.90;;;;;;6266993;22;20939;-87
2021/07/22 03:46:15;;;;;;;19.80;10.40;;;14.40;99.90;;;;;;6267218;22;20430;-87
2021/07/22 03:48:41;;;;;;;11.37;8.97;;;14.60;99.90;;;;;;6267430;22;20406;-87
2021/07/22 03:51:08;;;;;;;12.70;9.80;;;14.60;99.90;;;;;;6266879;22;20467;-86
2021/07/22 03:53:35;;;;;;;13.23;10.70;;;14.30;99.90;;;;;;6267618;22;20406;-87
2021/07/22 03:56:02;;;;;;;13.07;11.00;;;14.40;99.90;;;;;;6267459;22;20400;-86
2021/07/22 03:58:34;;;;;;;13.90;10.33;;;14.40;99.90;;;;;;6267183;22;20554;-87
2021/07/22 04:01:05;;;;;;;11.33;9.60;;;14.50;99.90;;;;;;6295041;22;20775;-86
2021/07/22 04:03:35;;;;;;;11.00;9.90;;;14.50;99.90;;;;;;6267621;22;20415;-87
2021/07/22 04:06:01;;;;;;;10.90;9.37;;;14.50;99.90;;;;;;6267220;22;20395;-87
2021/07/22 04:08:27;;;;;;;14.00;9.97;;;14.80;99.90;;;;;;6292328;22;20404;-86
2021/07/22 04:10:55;;;;;;;12.20;10.23;;;14.60;99.90;;;;;;6267287;22;20858;-87
2021/07/22 04:13:21;;;;;;;11.57;9.87;;;14.50;99.90;;;;;;6266292;22;20888;-86
2021/07/22 04:15:48;;;;;;;12.07;9.63;;;14.60;99.90;;;;;;6268622;22;20400;-86
2021/07/22 04:18:14;;;;;;;13.77;9.80;;;14.50;99.90;;;;;;6240996;22;20246;-86
2021/07/22 04:20:40;;;;;;;13.57;9.97;;;14.60;99.90;;;;;;6267339;22;20392;-85
2021/07/22 04:23:07;;;;;;;11.80;10.00;;;14.50;99.90;;;;;;6267782;22;20468;-87
2021/07/22 04:25:38;;;;;;;10.93;9.70;;;14.50;99.90;;;;;;6267126;22;20396;-87
2021/07/22 04:28:05;;;;;;;12.73;10.73;;;14.50;99.90;;;;;;6267456;22;20483;-88
2021/07/22 04:30:32;;;;;;;12.70;9.30;;;14.60;99.90;;;;;;6266887;22;20472;-88
2021/07/22 04:33:01;;;;;;;13.07;9.57;;;14.90;99.90;;;;;;6268503;22;20447;-87
2021/07/22 04:35:27;;;;;;;13.37;10.83;;;15.10;99.90;;;;;;6267505;22;20396;-87
2021/07/22 04:37:54;;;;;;;11.33;9.23;;;15.10;99.90;;;;;;6269083;22;21061;-87
2021/07/22 04:40:20;;;;;;;15.00;10.10;;;15.50;99.90;;;;;;6268535;22;20815;-87
2021/07/22 04:42:47;;;;;;;12.40;8.80;;;15.10;99.90;;;;;;6268002;22;20387;-88
2021/07/22 04:45:14;;;;;;;13.13;9.50;;;15.10;99.90;;;;;;6267813;22;20384;-88
2021/07/22 04:47:43;;;;;;;12.10;10.03;;;15.10;99.90;;;;;;6266853;22;20396;-87
2021/07/22 04:50:14;;;;;;;11.60;10.03;;;15.30;99.90;;;;;;6296153;22;20724;-87
2021/07/22 04:52:46;;;;;;;11.43;9.50;;;15.30;99.90;;;;;;6269810;22;20407;-88
2021/07/22 04:55:19;;;;;;;12.83;9.83;;;15.50;99.90;;;;;;6270218;22;20402;-88
2021/07/22 04:57:58;;;;;;;12.60;9.60;;;15.00;99.90;;;;;;6297410;22;20433;-87
2021/07/22 05:00:29;;;;;;;11.97;10.50;;;15.60;99.90;;;;;;6270125;22;20412;-88
2021/07/22 05:03:00;;;;;;;11.03;8.87;;;16.00;99.90;;;;;;6269356;22;20411;-87
2021/07/22 05:05:29;;;;;;;11.00;9.47;;;15.80;99.90;;;;;;6272489;22;20414;-87
2021/07/22 05:08:12;;;;;;;11.53;9.67;;;16.00;99.90;;;;;;6269442;22;20396;-88
2021/07/22 05:10:39;;;;;;;13.93;10.00;;;16.10;99.90;;;;;;6269426;22;20395;-87
2021/07/22 05:13:06;;;;;;;10.83;9.60;;;16.00;99.90;;;;;;6270527;22;20426;-88
2021/07/22 05:15:32;;;;;;;11.83;9.83;;;16.10;99.90;;;;;;6271384;22;20399;-88
2021/07/22 05:17:58;;;;;;;13.03;9.73;;;16.90;99.90;;;;;;6269014;22;20514;-88
2021/07/22 05:20:28;;;;;;;15.47;9.43;;;15.30;99.90;;;;;;6269878;22;20434;-88
2021/07/22 05:22:58;;;;;;;11.17;8.70;;;16.10;99.90;;;;;;6297708;22;20674;-88
2021/07/22 05:25:24;;;;;;;14.40;11.17;;;17.10;99.90;;;;;;6269627;22;20521;-88
2021/07/22 05:27:53;;;;;;;14.70;11.17;;;16.10;99.90;;;;;;6296868;22;20719;-87
2021/07/22 05:30:24;;;;;;;13.23;11.00;;;16.80;99.90;;;;;;6268373;22;20471;-87
2021/07/22 05:32:52;;;;;;;11.30;10.10;;;16.30;99.90;;;;;;6268780;22;20945;-88
2021/07/22 05:35:23;;;;;;;13.63;10.53;;;16.10;99.90;;;;;;6270072;22;20380;-88
2021/07/22 05:37:55;;;;;;;12.30;10.50;;;16.10;99.90;;;;;;6268997;22;20399;-88
2021/07/22 05:40:21;;;;;;;13.93;9.90;;;16.20;99.90;;;;;;6269980;22;20491;-88
2021/07/22 05:42:49;;;;;;;13.97;11.40;;;16.50;99.90;;;;;;6268895;22;20797;-87
2021/07/22 05:45:17;;;;;;;11.50;10.30;;;16.30;99.90;;;;;;6289061;22;20790;-86
2021/07/22 05:47:46;;;;;;;12.50;11.20;;;16.30;99.90;;;;;;6295858;22;20466;-88
2021/07/22 05:50:13;;;;;;;14.70;12.27;;;16.40;99.90;;;;;;6268207;22;20859;-87
2021/07/22 05:52:39;;;;;;;14.63;11.07;;;16.40;99.90;;;;;;6296068;22;20384;-86
2021/07/22 05:55:10;;;;;;;15.47;12.60;;;16.40;99.90;;;;;;6295237;22;20722;-89
2021/07/22 05:57:38;;;;;;;13.00;11.17;;;15.30;99.90;;;;;;6293832;22;20161;-85
2021/07/22 06:00:05;;;;;;;17.03;12.20;;;16.70;99.90;;;;;;6294554;22;20420;-85
2021/07/22 06:02:30;;;;;;;15.60;11.20;;;16.90;99.90;;;;;;6295826;22;20226;-87
2021/07/22 06:04:56;;;;;;;15.90;11.40;;;17.00;99.90;;;;;;6295664;22;20782;-86
2021/07/22 06:07:22;;;;;;;16.47;12.70;;;17.10;99.90;;;;;;6295883;22;20150;-86
2021/07/22 06:09:47;;;;;;;18.23;12.47;;;17.20;99.90;;;;;;6296702;22;20648;-86
2021/07/22 06:12:13;;;;;;;16.80;12.17;;;17.30;99.90;;;;;;6295963;22;20219;-86
2021/07/22 06:14:39;;;;;;;17.40;11.17;;;17.40;99.90;;;;;;6267488;22;20381;-88
2021/07/22 06:17:06;;;;;;;14.77;11.37;;;17.40;99.90;;;;;;6268301;22;20241;-87
2021/07/22 06:19:50;;;;;;;15.23;11.20;;;17.50;99.90;;;;;;6262989;22;20443;-86
2021/07/22 06:22:16;;;;;;;13.97;11.47;;;17.40;99.90;;;;;;6266523;22;20392;-84
2021/07/22 06:24:46;;;;;;;15.53;11.90;;;17.60;99.90;;;;;;6268136;22;20418;-87
2021/07/22 06:27:15;;;;;;;12.77;11.47;;;17.70;99.90;;;;;;6267984;22;20431;-84
2021/07/22 06:29:47;;;;;;;13.13;11.27;;;17.80;99.90;;;;;;6240629;22;20525;-86
2021/07/22 06:32:13;;;;;;;13.00;11.37;;;17.80;99.90;;;;;;6266766;22;20392;-85
2021/07/22 06:34:45;;;;;;;12.37;11.07;;;18.10;99.90;;;;;;6267355;22;20411;-88
2021/07/22 06:37:17;;;;;;;11.60;10.50;;;18.00;99.90;;;;;;6267759;22;20157;-87
2021/07/22 06:39:43;;;;;;;12.07;10.87;;;18.20;99.90;;;;;;6268446;22;20471;-85
2021/07/22 06:42:14;;;;;;;12.47;10.10;;;18.20;99.90;;;;;;6267251;22;20399;-86
2021/07/22 06:44:40;;;;;;;10.60;9.40;;;18.20;99.90;;;;;;6266910;22;20595;-85
2021/07/22 06:47:11;;;;;;;13.03;10.87;;;18.20;99.90;;;;;;6267599;22;20866;-84
2021/07/22 06:49:36;;;;;;;11.87;10.43;;;18.20;99.90;;;;;;6268159;22;20172;-85
2021/07/22 06:52:15;;;;;;;11.47;10.27;;;18.30;99.90;;;;;;6267568;22;20667;-85
2021/07/22 06:54:41;;;;;;;11.70;10.40;;;18.40;99.90;;;;;;6267733;22;20169;-86
2021/07/22 06:57:06;;;;;;;11.90;10.70;;;18.70;99.90;;;;;;6268160;22;20487;-85
2021/07/22 06:59:32;;;;;;;14.40;10.20;;;18.80;99.90;;;;;;6267626;22;20667;-84
2021/07/22 07:01:59;;;;;;;11.77;10.20;;;19.00;99.90;;;;;;6267403;22;20260;-86
2021/07/22 07:04:26;;;;;;;10.97;9.80;;;19.10;99.90;;;;;;6268249;22;20161;-85
2021/07/22 07:06:52;;;;;;;13.60;11.80;;;19.20;99.90;;;;;;6268770;22;20471;-85
2021/07/22 07:09:23;;;;;;;11.17;10.07;;;19.20;99.90;;;;;;6267425;22;20426;-86
2021/07/22 07:11:49;;;;;;;12.13;9.70;;;19.30;99.90;;;;;;6266478;22;20169;-85
2021/07/22 07:14:17;;;;;;;11.93;10.17;;;19.60;99.90;;;;;;6268171;22;20734;-87
2021/07/22 07:16:44;;;;;;;12.10;10.80;;;19.70;99.90;;;;;;6267268;22;20188;-85
2021/07/22 07:19:22;;;;;;;11.10;9.97;;;19.80;99.90;;;;;;6266715;22;20440;-87
2021/07/22 07:21:48;;;;;;;11.53;10.17;;;19.80;99.90;;;;;;6267420;22;20171;-87
2021/07/22 07:24:22;;;;;;;12.40;10.40;;;20.50;99.90;;;;;;6267148;22;20396;-86
2021/07/22 07:26:48;;;;;;;11.30;9.83;;;20.20;99.90;;;;;;6267512;22;20399;-86
2021/07/22 07:29:15;;;;;;;10.10;9.10;;;20.20;99.90;;;;;;6267999;22;20400;-86
2021/07/22 07:31:41;;;;;;;11.90;9.70;;;20.10;99.90;;;;;;6268474;22;20388;-86
2021/07/22 07:34:07;;;;;;;12.00;9.40;;;20.30;99.90;;;;;;6267406;22;20945;-85
2021/07/22 07:36:34;;;;;;;10.57;9.57;;;20.30;99.90;;;;;;6267651;22;20406;-86
2021/07/22 07:39:00;;;;;;;10.13;9.13;;;20.40;99.90;;;;;;6267857;22;20444;-86
2021/07/22 07:41:33;;;;;;;12.93;9.80;;;20.50;99.90;;;;;;6267417;22;20398;-86
2021/07/22 07:43:59;;;;;;;11.60;9.00;;;20.50;99.90;;;;;;6267207;22;20165;-85
2021/07/22 07:46:33;;;;;;;11.20;9.10;;;20.60;99.90;;;;;;6267447;22;20909;-85
2021/07/22 07:54:51;;;;;;;14.53;9.70;;;20.90;99.90;;;;;;6292718;22;20411;-86
2021/07/22 07:57:18;;;;;;;11.53;10.07;;;20.90;99.90;;;;;;6263770;22;20874;-86
2021/07/22 07:59:46;;;;;;;11.10;9.80;;;21.00;99.90;;;;;;6267468;22;20443;-86
2021/07/22 08:02:15;;;;;;;13.53;9.43;;;21.20;99.90;;;;;;6268208;22;20756;-87
2021/07/22 08:04:41;;;;;;;12.07;9.67;;;21.30;99.90;;;;;;6267299;22;20576;-86
2021/07/22 08:07:08;;;;;;;10.30;9.20;;;21.20;99.90;;;;;;6267980;22;20422;-87
2021/07/22 08:09:34;;;;;;;11.63;9.03;;;21.20;99.90;;;;;;6266678;22;20405;-87
2021/07/22 08:12:24;;;;;;;9.87;8.27;;;21.40;99.90;;;;;;6267281;22;20399;-87
2021/07/22 08:14:55;;;;;;;11.40;9.80;;;21.80;99.90;;;;;;6266539;22;20920;-86
2021/07/22 08:17:25;;;;;;;11.13;9.33;;;21.60;99.90;;;;;;6289562;22;20392;-86
2021/07/22 08:19:57;;;;;;;9.80;8.90;;;22.00;99.90;;;;;;6266542;22;20440;-85
2021/07/22 08:22:25;;;;;;;11.60;9.30;;;21.90;99.90;;;;;;6266582;22;20388;-87
2021/07/22 08:25:00;;;;;;;9.67;8.77;;;21.90;99.90;;;;;;6268578;22;20460;-86
2021/07/22 08:30:52;;;;;;;9.53;8.63;;;22.00;99.90;;;;;;6292148;22;20485;-87
2021/07/22 08:33:22;;;;;;;10.77;9.73;;;22.10;99.90;;;;;;6268981;22;20396;-88
2021/07/22 08:35:49;;;;;;;10.73;8.70;;;22.20;99.90;;;;;;6268141;22;20832;-87
2021/07/22 08:38:19;;;;;;;10.37;8.57;;;22.40;99.90;;;;;;6268936;22;20431;-88
2021/07/22 08:40:56;;;;;;;9.40;7.93;;;22.50;99.90;;;;;;6268668;22;20894;-88
2021/07/22 08:43:43;;;;;;;9.60;8.63;;;22.60;99.90;;;;;;6269577;22;20595;-87
2021/07/22 08:46:13;;;;;;;11.33;8.57;;;22.80;99.90;;;;;;6269832;22;20407;-87
2021/07/22 08:48:57;;;;;;;9.67;7.30;;;22.90;99.90;;;;;;6267032;22;20500;-86
2021/07/22 08:51:32;;;;;;;8.97;8.07;;;23.00;99.90;;;;;;6269738;22;20396;-84
2021/07/22 08:53:58;;;;;;;8.70;7.93;;;23.10;99.30;;;;;;6244441;22;20972;-85
2021/07/22 08:56:26;;;;;;;8.73;7.90;;;23.20;99.60;;;;;;6244142;22;20424;-85
2021/07/22 08:58:53;;;;;;;9.70;8.70;;;23.20;99.10;;;;;;6242169;22;20439;-87
2021/07/22 09:01:22;;;;;;;9.67;8.67;;;23.50;97.20;;;;;;6269695;22;20161;-86
2021/07/22 09:03:48;;;;;;;10.33;8.73;;;23.50;97.70;;;;;;6269267;22;20465;-85
2021/07/22 09:06:14;;;;;;;10.00;8.53;;;23.60;98.40;;;;;;6242994;22;20700;-86
2021/07/22 09:08:41;;;;;;;9.10;8.20;;;23.60;97.50;;;;;;6296375;22;20377;-86
2021/07/22 09:11:09;;;;;;;8.40;7.53;;;23.50;97.70;;;;;;6297056;22;20204;-88
2021/07/22 09:13:35;;;;;;;11.83;8.70;;;23.50;97.30;;;;;;6269614;22;20407;-87
2021/07/22 09:16:02;;;;;;;9.60;8.00;;;23.50;96.80;;;;;;6269714;22;20400;-87
2021/07/22 09:18:35;;;;;;;9.40;8.40;;;23.60;97.70;;;;;;6267127;22;20196;-87
2021/07/22 09:21:23;;;;;;;9.67;7.70;;;23.60;97.60;;;;;;6269729;22;20399;-89
2021/07/22 09:24:10;;;;;;;8.80;7.90;;;23.90;97.50;;;;;;6272327;22;20392;-86
2021/07/22 09:26:39;;;;;;;8.23;7.53;;;24.00;96.30;;;;;;6269591;22;20722;-86
2021/07/22 09:29:17;;;;;;;8.80;8.00;;;24.20;96.50;;;;;;6295749;22;20467;-86
2021/07/22 09:31:43;;;;;;;9.30;8.37;;;24.40;96.90;;;;;;6270270;22;20470;-87
2021/07/22 09:34:34;;;;;;;8.10;7.30;;;24.60;95.00;;;;;;6269734;22;20509;-88
2021/07/22 09:37:07;;;;;;;8.47;7.00;;;24.80;95.40;;;;;;6268595;22;20247;-88
2021/07/22 09:39:37;;;;;;;8.63;7.80;;;24.60;95.00;;;;;;6268550;22;20553;-88
2021/07/22 09:42:06;;;;;;;8.10;7.40;;;24.80;94.90;;;;;;6268751;22;20858;-86
2021/07/22 09:44:37;;;;;;;8.80;7.23;;;25.00;95.50;;;;;;6296570;22;20847;-86
2021/07/22 09:47:09;;;;;;;8.10;7.30;;;25.10;94.40;;;;;;6269929;22;20396;-86
2021/07/22 09:49:41;;;;;;;7.80;7.10;;;25.00;95.20;;;;;;6268295;22;20483;-87
2021/07/22 09:52:10;;;;;;;7.50;6.83;;;25.00;92.40;;;;;;6243890;22;20422;-86
2021/07/22 09:54:40;;;;;;;9.50;7.83;;;25.10;94.60;;;;;;6264567;22;21498;-87
2021/07/22 09:57:19;;;;;;;8.67;7.90;;;25.00;95.10;;;;;;6294640;22;20933;-87
2021/07/22 09:59:47;;;;;;;8.83;8.00;;;25.20;94.90;;;;;;6267813;22;20439;-86
2021/07/22 10:02:23;;;;;;;8.93;8.03;;;25.30;94.60;;;;;;6294255;22;20454;-86
2021/07/22 10:05:00;;;;;;;10.83;9.00;;;25.40;94.30;;;;;;6268515;22;20418;-87
2021/07/22 10:07:28;;;;;;;9.03;8.10;;;25.50;94.60;;;;;;6267199;22;20485;-88
2021/07/22 10:09:57;;;;;;;9.10;8.30;;;25.60;95.60;;;;;;6266942;22;20894;-87
2021/07/22 10:12:24;;;;;;;8.63;7.83;;;25.90;93.40;;;;;;6268478;22;20473;-89
2021/07/22 10:15:03;;;;;;;9.17;8.27;;;26.10;93.40;;;;;;6267679;22;21067;-90
2021/07/22 10:17:36;;;;;;;10.47;9.50;;;26.00;93.40;;;;;;6244397;22;20392;-90
2021/07/22 10:20:04;;;;;;;11.10;10.00;;;26.00;93.70;;;;;;6269043;22;20593;-89
2021/07/22 10:22:38;;;;;;;10.20;9.00;;;26.10;92.30;;;;;;6267362;22;20392;-89
2021/07/22 10:25:10;;;;;;;9.40;8.50;;;26.30;92.60;;;;;;6267451;22;20392;-89
2021/07/22 10:27:41;;;;;;;9.67;8.77;;;26.30;92.40;;;;;;6270022;22;20388;-89
2021/07/22 10:30:09;;;;;;;9.50;8.70;;;26.20;91.70;;;;;;6297961;22;20380;-89
2021/07/22 10:32:38;;;;;;;10.90;9.00;;;26.30;92.30;;;;;;6272149;22;20426;-88
2021/07/22 10:35:05;;;;;;;9.70;8.77;;;26.70;91.00;;;;;;6259777;22;20392;-92
2021/07/22 10:37:33;;;;;;;10.10;9.20;;;26.80;90.80;;;;;;6268581;22;20468;-87
2021/07/22 10:40:07;;;;;;;9.53;8.80;;;26.90;91.50;;;;;;6298675;22;20463;-88
2021/07/22 10:42:52;;;;;;;9.80;8.90;;;27.20;92.30;;;;;;6269900;22;20893;-89
2021/07/22 10:45:21;;;;;;;9.33;8.53;;;27.30;89.80;;;;;;6268936;22;20392;-90
2021/07/22 10:48:24;;;;;;;10.50;9.50;;;27.40;90.50;;;;;;6298855;22;20384;-90
2021/07/22 10:50:56;;;;;;;10.10;9.10;;;27.40;92.60;;;;;;6270066;22;20434;-89
2021/07/22 10:53:56;;;;;;;9.80;8.90;;;27.00;92.50;;;;;;6292447;22;20404;-90
2021/07/22 10:56:42;;;;;;;10.50;9.50;;;26.90;91.90;;;;;;6268800;22;20416;-89
2021/07/22 10:59:09;;;;;;;10.13;9.23;;;26.90;91.80;;;;;;6269097;22;20618;-88
2021/07/22 11:01:44;;;;;;;9.90;9.10;;;26.90;91.50;;;;;;6266810;22;20415;-88
2021/07/22 11:04:33;;;;;;;10.50;9.50;;;26.90;91.90;;;;;;6266976;22;20395;-89
2021/07/22 11:07:00;;;;;;;10.20;9.20;;;27.10;90.10;;;;;;6267087;22;20469;-89
2021/07/22 11:09:46;;;;;;;9.97;9.07;;;27.50;90.40;;;;;;6271104;22;20388;-88
2021/07/22 11:12:42;;;;;;;10.23;9.30;;;27.80;89.70;;;;;;6268949;22;21017;-87
2021/07/22 11:15:10;;;;;;;10.80;9.80;;;27.70;90.40;;;;;;6245096;22;20898;-89
2021/07/22 11:17:44;;;;;;;10.77;9.33;;;27.80;91.80;;;;;;6242694;22;20391;-89
2021/07/22 11:20:19;;;;;;;10.10;9.30;;;27.90;89.00;;;;;;6269331;22;20442;-85
2021/07/22 11:22:49;;;;;;;10.97;9.90;;;28.20;87.50;;;;;;6270773;22;20449;-86
2021/07/22 11:25:17;;;;;;;10.83;9.83;;;28.00;89.80;;;;;;6295026;22;20392;-86
2021/07/22 11:27:52;;;;;;;10.17;9.37;;;27.90;89.30;;;;;;6270282;22;20962;-85
2021/07/22 11:30:19;;;;;;;14.93;10.23;;;28.20;90.50;;;;;;6270378;22;20398;-86
2021/07/22 11:32:45;;;;;;;10.40;9.60;;;28.30;84.10;;;;;;6293740;22;20427;-86
2021/07/22 11:35:21;;;;;;;10.03;9.23;;;28.40;90.80;;;;;;6269396;22;20399;-86
2021/07/22 11:37:48;;;;;;;10.20;9.30;;;27.80;83.00;;;;;;6270361;22;20214;-86
2021/07/22 11:40:16;;;;;;;10.57;9.47;;;27.30;86.50;;;;;;6269999;22;20487;-85
2021/07/22 11:42:51;;;;;;;11.10;10.03;;;27.70;90.40;;;;;;6298109;22;20427;-86
2021/07/22 11:45:17;;;;;;;10.60;9.53;;;28.20;82.40;;;;;;6268210;22;20537;-86
2021/07/22 11:47:43;;;;;;;10.70;9.70;;;28.60;82.70;;;;;;6267365;22;20854;-87
2021/07/22 11:50:09;;;;;;;11.50;10.40;;;28.00;83.90;;;;;;6268799;22;20315;-85
2021/07/22 11:52:36;;;;;;;10.50;9.70;;;28.30;85.00;;;;;;6270410;22;20528;-88
2021/07/22 11:55:11;;;;;;;10.53;9.63;;;27.70;82.40;;;;;;6297861;22;20871;-87
2021/07/22 11:57:41;;;;;;;11.27;10.17;;;27.00;83.30;;;;;;6268750;22;20741;-87
2021/07/22 12:00:18;;;;;;;11.93;10.77;;;27.30;87.90;;;;;;6269999;22;20479;-84
2021/07/22 12:02:46;;;;;;;9.47;8.60;;;27.90;90.30;;;;;;6271223;22;20392;-84
2021/07/22 12:05:12;;;;;;;10.93;9.83;;;28.70;87.10;;;;;;6296514;22;20384;-85
2021/07/22 12:07:39;;;;;;;10.93;9.93;;;29.00;83.30;;;;;;6268459;22;20380;-83
2021/07/22 12:10:05;;;;;;;10.30;9.50;;;28.70;80.90;;;;;;6244469;22;20789;-84
2021/07/22 12:12:31;;;;;;;11.37;10.20;;;28.30;81.60;;;;;;6271420;22;20388;-84
2021/07/22 12:15:10;;;;;;;10.87;9.97;;;28.20;83.30;;;;;;6223085;22;20403;-84
2021/07/22 12:17:39;;;;;;;11.77;10.63;;;28.50;82.60;;;;;;6222806;22;20165;-84
2021/07/22 12:20:06;;;;;;;11.17;10.23;;;27.70;83.60;;;;;;6294005;22;20435;-83
2021/07/22 12:22:34;;;;;;;10.63;9.73;;;27.60;80.80;;;;;;6271533;22;20812;-84
2021/07/22 12:25:06;;;;;;;12.47;10.10;;;27.90;84.50;;;;;;6300378;22;20392;-84
2021/07/22 12:27:35;;;;;;;11.60;10.50;;;28.30;86.50;;;;;;6299952;22;20388;-83
2021/07/22 12:30:12;;;;;;;10.87;9.93;;;28.70;82.80;;;;;;6300632;22;20381;-84
2021/07/22 12:32:54;;;;;;;10.67;9.77;;;29.20;84.00;;;;;;6271644;22;20399;-84
2021/07/22 12:35:40;;;;;;;10.60;9.60;;;29.90;76.20;;;;;;6274251;22;20391;-84
2021/07/22 12:38:24;;;;;;;9.93;9.00;;;30.10;79.70;;;;;;6299358;22;20384;-84
2021/07/22 12:40:56;;;;;;;11.03;10.03;;;30.10;81.60;;;;;;6300989;22;20391;-84
2021/07/22 12:43:23;;;;;;;10.43;9.53;;;30.20;78.60;;;;;;6271662;22;20433;-84
2021/07/22 12:45:54;;;;;;;11.43;10.17;;;29.80;75.50;;;;;;6273269;22;20384;-84
2021/07/22 12:48:39;;;;;;;12.13;11.10;;;30.10;77.70;;;;;;6246235;22;20900;-84
2021/07/22 12:51:13;;;;;;;10.83;9.67;;;29.90;79.70;;;;;;6272214;22;20415;-84
2021/07/22 12:53:40;;;;;;;12.20;10.60;;;29.80;83.80;;;;;;6295293;22;22205;-84
2021/07/22 12:56:06;;;;;;;11.07;10.00;;;30.00;78.50;;;;;;6274345;22;20751;-84
2021/07/22 12:58:41;;;;;;;11.13;10.13;;;29.20;76.60;;;;;;6246734;22;20423;-84
2021/07/22 13:01:23;;;;;;;12.23;10.20;;;29.10;77.90;;;;;;6273561;22;20173;-84